Time;durP1;ratioP1;P1;durP2;ratioP2;P2;SDS_P1;SDS_P2;PMS_P1;PMS_P2;Temp;Humidity;BMP_temperature;BMP_pressure;BME280_temperature;BME280_humidity;BME280_pressure;Samples;Min_cycle;Max_cycle;Signal;HPM_P1;HPM_P2
2023/03/14 00:01:33;;;;;;;2.35;1.10;;;15.30;62.40;;;;;;5016622;28;20037;-51
2023/03/14 00:04:00;;;;;;;3.33;1.35;;;15.30;63.00;;;;;;5026070;28;20053;-48
2023/03/14 00:06:29;;;;;;;1.55;1.00;;;15.20;63.20;;;;;;5017523;28;20037;-51
2023/03/14 00:08:58;;;;;;;2.80;1.30;;;15.20;63.90;;;;;;5030690;28;20045;-50
2023/03/14 00:11:27;;;;;;;3.28;1.05;;;15.00;64.40;;;;;;5031304;28;20073;-50
2023/03/14 00:14:02;;;;;;;1.77;1.10;;;15.00;64.50;;;;;;5016058;28;20046;-48
2023/03/14 00:16:34;;;;;;;2.92;1.20;;;14.90;64.60;;;;;;5016709;28;20041;-49
2023/03/14 00:19:03;;;;;;;4.32;1.30;;;14.70;65.20;;;;;;5030393;28;20057;-49
2023/03/14 00:21:31;;;;;;;4.25;1.00;;;14.60;65.30;;;;;;4999089;28;20038;-50
2023/03/14 00:23:58;;;;;;;2.72;0.95;;;14.50;65.50;;;;;;5020142;28;20049;-49
2023/03/14 00:26:26;;;;;;;4.53;1.17;;;14.40;65.90;;;;;;5030719;28;20037;-50
2023/03/14 00:28:55;;;;;;;4.13;1.50;;;14.30;66.10;;;;;;5018462;28;20042;-48
2023/03/14 00:31:22;;;;;;;2.55;1.35;;;14.20;66.30;;;;;;5013698;28;20038;-50
2023/03/14 00:33:52;;;;;;;3.33;1.33;;;14.20;66.70;;;;;;5012795;28;20100;-47
2023/03/14 00:36:26;;;;;;;2.33;1.02;;;14.10;66.80;;;;;;5028991;28;20063;-52
2023/03/14 00:38:52;;;;;;;4.32;1.35;;;14.00;66.60;;;;;;5009931;28;20579;-47
2023/03/14 00:41:22;;;;;;;7.60;1.50;;;14.00;66.70;;;;;;5019125;28;20041;-51
2023/03/14 00:43:54;;;;;;;2.33;1.02;;;13.90;66.70;;;;;;5007238;28;20044;-49
2023/03/14 00:46:22;;;;;;;2.25;1.20;;;13.90;66.90;;;;;;5010087;28;20037;-48
2023/03/14 00:48:55;;;;;;;3.33;1.52;;;13.80;66.70;;;;;;5006204;28;20041;-49
2023/03/14 00:51:24;;;;;;;6.00;1.03;;;13.80;66.90;;;;;;5003360;28;20454;-48
2023/03/14 00:54:02;;;;;;;2.28;0.98;;;13.80;66.60;;;;;;4990042;28;20054;-49
2023/03/14 00:56:37;;;;;;;1.77;1.05;;;13.70;66.80;;;;;;5007579;28;20453;-47
2023/03/14 00:59:06;;;;;;;1.73;0.77;;;13.70;66.80;;;;;;5003215;28;20045;-48
2023/03/14 01:01:33;;;;;;;4.65;0.73;;;13.70;66.60;;;;;;4999683;28;20029;-50
2023/03/14 01:04:07;;;;;;;1.85;1.13;;;13.60;66.70;;;;;;5019038;28;20034;-47
2023/03/14 01:06:36;;;;;;;2.17;0.80;;;13.60;66.70;;;;;;5013147;28;20522;-51
2023/03/14 01:09:03;;;;;;;4.07;0.90;;;13.60;66.90;;;;;;5011882;28;20288;-50
2023/03/14 01:11:42;;;;;;;2.05;0.68;;;13.60;66.90;;;;;;5014469;28;20585;-50
2023/03/14 01:14:10;;;;;;;4.72;1.30;;;13.60;67.10;;;;;;5014545;28;20132;-46
2023/03/14 01:16:36;;;;;;;2.25;0.93;;;13.60;67.10;;;;;;5025620;28;20043;-48
2023/03/14 01:19:12;;;;;;;3.83;1.02;;;13.50;67.60;;;;;;5027592;28;20514;-48
2023/03/14 01:21:39;;;;;;;3.90;1.20;;;13.60;67.10;;;;;;5012115;28;20045;-47
2023/03/14 01:24:06;;;;;;;1.77;0.70;;;13.60;67.10;;;;;;5020127;28;20108;-48
2023/03/14 01:26:34;;;;;;;1.92;0.65;;;13.60;67.10;;;;;;5028874;28;20453;-48
2023/03/14 01:29:04;;;;;;;3.35;0.80;;;13.60;66.90;;;;;;4999099;28;20069;-49
2023/03/14 01:31:33;;;;;;;3.47;0.90;;;13.60;66.70;;;;;;4997318;28;20045;-51
2023/03/14 01:34:02;;;;;;;5.38;0.82;;;13.60;66.60;;;;;;5028968;28;20080;-48
2023/03/14 01:36:35;;;;;;;1.85;1.00;;;13.60;66.60;;;;;;5028665;28;20072;-48
2023/03/14 01:39:03;;;;;;;1.48;0.70;;;13.60;66.50;;;;;;4990322;28;20050;-48
2023/03/14 01:41:34;;;;;;;5.20;1.40;;;13.60;66.40;;;;;;5016534;28;20140;-48
2023/03/14 01:44:01;;;;;;;3.95;0.80;;;13.60;66.40;;;;;;5012214;28;20052;-51
2023/03/14 01:46:48;;;;;;;1.38;0.65;;;13.60;66.50;;;;;;5012043;28;20049;-52
2023/03/14 01:49:34;;;;;;;3.42;1.05;;;13.70;66.90;;;;;;5006734;28;20073;-50
2023/03/14 01:52:11;;;;;;;5.63;1.23;;;13.70;67.20;;;;;;5008435;28;20038;-52
2023/03/14 01:54:42;;;;;;;2.63;1.13;;;13.70;66.70;;;;;;4991488;28;20042;-49
2023/03/14 01:57:22;;;;;;;3.97;1.30;;;13.70;66.50;;;;;;5005286;28;20484;-45
2023/03/14 02:00:00;;;;;;;5.75;1.10;;;13.80;66.60;;;;;;5015113;28;20048;-50
2023/03/14 02:02:27;;;;;;;5.25;1.30;;;13.80;66.60;;;;;;5008168;28;20671;-48
2023/03/14 02:05:06;;;;;;;4.85;1.38;;;13.70;66.40;;;;;;5011630;28;20054;-47
2023/03/14 02:07:50;;;;;;;5.35;1.70;;;13.70;67.20;;;;;;5008172;28;20038;-50
2023/03/14 02:10:28;;;;;;;4.80;1.63;;;13.70;67.00;;;;;;4991150;28;20144;-51
2023/03/14 02:13:02;;;;;;;4.53;1.05;;;13.70;66.60;;;;;;4990727;28;20038;-46
2023/03/14 02:15:41;;;;;;;2.80;1.15;;;13.70;66.60;;;;;;5005530;28;20034;-48
2023/03/14 02:18:19;;;;;;;3.35;1.10;;;13.70;66.50;;;;;;5008355;28;20049;-47
2023/03/14 02:21:24;;;;;;;5.88;1.35;;;13.70;66.40;;;;;;5010817;28;20030;-48
2023/03/14 02:24:02;;;;;;;3.03;1.08;;;13.70;66.60;;;;;;4956527;28;20040;-51
2023/03/14 02:26:43;;;;;;;3.00;1.08;;;13.70;66.60;;;;;;5007546;28;20151;-50
2023/03/14 02:29:15;;;;;;;5.03;1.20;;;13.70;66.60;;;;;;5010059;28;20050;-51
2023/03/14 02:31:53;;;;;;;4.47;1.50;;;13.70;66.50;;;;;;5002294;28;20042;-50
2023/03/14 02:34:29;;;;;;;6.13;1.17;;;13.70;66.40;;;;;;5009434;28;20050;-49
2023/03/14 02:37:27;;;;;;;4.65;0.93;;;13.60;66.30;;;;;;5000768;28;20049;-51
2023/03/14 02:39:56;;;;;;;5.13;1.40;;;13.60;66.70;;;;;;4993733;28;20042;-51
2023/03/14 02:42:24;;;;;;;3.67;1.35;;;13.60;66.40;;;;;;4996590;28;20477;-49
2023/03/14 02:45:15;;;;;;;4.40;1.90;;;13.70;66.50;;;;;;5026657;28;20073;-49
2023/03/14 02:47:52;;;;;;;4.47;1.30;;;13.60;67.00;;;;;;5010895;28;20037;-50
2023/03/14 02:50:29;;;;;;;3.67;1.17;;;13.70;66.70;;;;;;4985059;28;20042;-52
2023/03/14 02:53:02;;;;;;;3.85;1.40;;;13.70;66.70;;;;;;5009196;28;20402;-52
2023/03/14 02:55:29;;;;;;;3.25;1.45;;;13.70;66.60;;;;;;5007385;28;20132;-47
2023/03/14 02:58:02;;;;;;;7.03;1.42;;;13.70;66.70;;;;;;5005834;28;20410;-47
2023/03/14 03:00:30;;;;;;;3.47;1.15;;;13.70;66.70;;;;;;5002756;28;20472;-52
2023/03/14 03:02:57;;;;;;;4.13;1.10;;;13.70;66.80;;;;;;5019256;28;20112;-50
2023/03/14 03:05:28;;;;;;;3.35;1.73;;;13.70;66.80;;;;;;4996537;28;20046;-49
2023/03/14 03:08:00;;;;;;;3.92;1.63;;;13.70;66.80;;;;;;5009113;28;20052;-46
2023/03/14 03:10:28;;;;;;;5.25;1.50;;;13.80;66.90;;;;;;4996059;28;20046;-51
2023/03/14 03:12:59;;;;;;;4.25;1.50;;;13.80;66.90;;;;;;5000315;28;20073;-47
2023/03/14 03:15:28;;;;;;;6.30;1.20;;;13.80;66.90;;;;;;5025059;28;20064;-50
2023/03/14 03:17:58;;;;;;;3.10;1.30;;;13.80;66.90;;;;;;5015261;28;20053;-48
2023/03/14 03:20:31;;;;;;;4.57;1.33;;;13.80;66.80;;;;;;5009219;28;20180;-51
2023/03/14 03:23:02;;;;;;;4.90;1.20;;;13.80;66.90;;;;;;5011639;28;20049;-51
2023/03/14 03:25:32;;;;;;;5.72;1.42;;;13.80;67.00;;;;;;5028726;28;20111;-54
2023/03/14 03:28:07;;;;;;;5.47;2.08;;;13.80;67.00;;;;;;5014131;28;20056;-52
2023/03/14 03:30:41;;;;;;;4.35;1.15;;;13.80;67.10;;;;;;5011185;28;20049;-48
2023/03/14 03:33:18;;;;;;;4.18;1.50;;;13.80;67.20;;;;;;5025990;28;20409;-53
2023/03/14 03:35:49;;;;;;;2.80;1.30;;;13.80;67.40;;;;;;5027041;28;20536;-47
2023/03/14 03:38:23;;;;;;;3.92;1.52;;;13.70;67.60;;;;;;4993140;28;20046;-51
2023/03/14 03:40:53;;;;;;;2.95;1.05;;;13.70;67.50;;;;;;5017054;28;20061;-47
2023/03/14 03:43:23;;;;;;;4.13;1.10;;;13.70;67.70;;;;;;5013052;28;20045;-51
2023/03/14 03:45:58;;;;;;;5.45;1.30;;;13.60;67.80;;;;;;5023620;28;20552;-49
2023/03/14 03:48:26;;;;;;;3.67;1.27;;;13.60;68.30;;;;;;5009677;28;20046;-53
2023/03/14 03:50:55;;;;;;;4.43;1.83;;;13.50;68.30;;;;;;5005386;28;20130;-47
2023/03/14 03:53:23;;;;;;;5.03;1.33;;;13.40;68.50;;;;;;5019101;28;20030;-47
2023/03/14 03:56:05;;;;;;;5.35;1.42;;;13.40;68.70;;;;;;5030659;28;20053;-49
2023/03/14 03:58:33;;;;;;;3.05;0.70;;;13.40;68.90;;;;;;5013743;28;20052;-50
2023/03/14 04:01:01;;;;;;;3.25;0.68;;;13.30;69.10;;;;;;4989857;28;20053;-48
2023/03/14 04:03:35;;;;;;;3.85;0.73;;;13.30;69.40;;;;;;5011762;28;20089;-48
2023/03/14 04:06:09;;;;;;;2.05;0.47;;;13.20;69.80;;;;;;4997378;28;20549;-50
2023/03/14 04:08:43;;;;;;;2.35;0.80;;;13.20;69.80;;;;;;5029666;28;20076;-47
2023/03/14 04:11:24;;;;;;;1.70;0.63;;;13.10;69.80;;;;;;5013282;28;20046;-47
2023/03/14 04:14:11;;;;;;;2.00;0.80;;;13.10;69.80;;;;;;5013228;28;20603;-49
2023/03/14 04:16:38;;;;;;;2.33;0.73;;;13.10;69.90;;;;;;5012228;28;20139;-49
2023/03/14 04:19:10;;;;;;;1.38;0.40;;;13.00;70.10;;;;;;5028833;28;20048;-51
2023/03/14 04:21:45;;;;;;;2.13;0.60;;;12.90;70.20;;;;;;5007013;28;20037;-52
2023/03/14 04:24:23;;;;;;;2.40;0.60;;;13.00;70.70;;;;;;5021322;28;20565;-51
2023/03/14 04:26:50;;;;;;;0.45;0.30;;;12.90;70.70;;;;;;5014068;28;20052;-47
2023/03/14 04:29:21;;;;;;;2.33;0.50;;;12.80;70.60;;;;;;5013721;28;20117;-50
2023/03/14 04:31:51;;;;;;;1.10;0.55;;;12.90;71.00;;;;;;5012970;28;20136;-51
2023/03/14 04:34:22;;;;;;;0.70;0.30;;;12.80;71.30;;;;;;5028703;28;20509;-52
2023/03/14 04:36:52;;;;;;;1.08;0.40;;;12.80;71.30;;;;;;4997239;28;20597;-49
2023/03/14 04:39:25;;;;;;;0.93;0.40;;;12.80;71.50;;;;;;5008747;28;20045;-53
2023/03/14 04:42:09;;;;;;;0.88;0.30;;;12.80;71.60;;;;;;5012888;28;20053;-49
2023/03/14 04:44:38;;;;;;;1.08;0.30;;;12.70;71.90;;;;;;5028455;28;20088;-51
2023/03/14 04:47:09;;;;;;;1.00;0.30;;;12.70;71.90;;;;;;4993611;28;20048;-56
2023/03/14 04:49:38;;;;;;;1.65;0.50;;;12.80;72.40;;;;;;5020626;28;20120;-48
2023/03/14 04:52:09;;;;;;;0.73;0.40;;;12.70;72.20;;;;;;4997974;28;20083;-51
2023/03/14 04:54:37;;;;;;;1.67;0.50;;;12.70;72.60;;;;;;5023947;28;20426;-50
2023/03/14 04:57:05;;;;;;;1.10;0.60;;;12.70;72.60;;;;;;5013070;28;20474;-47
2023/03/14 04:59:35;;;;;;;0.68;0.40;;;12.70;72.60;;;;;;5002026;28;20069;-51
2023/03/14 05:02:20;;;;;;;0.80;0.70;;;12.70;72.60;;;;;;5004606;28;20065;-50
2023/03/14 05:05:00;;;;;;;1.48;0.65;;;12.80;72.60;;;;;;4986262;28;20468;-47
2023/03/14 05:07:50;;;;;;;2.40;0.40;;;12.70;72.60;;;;;;5016396;28;20072;-47
2023/03/14 05:10:40;;;;;;;2.83;0.68;;;12.80;72.70;;;;;;5006649;28;20607;-49
2023/03/14 05:13:11;;;;;;;1.50;0.77;;;12.80;72.80;;;;;;5006828;28;20050;-50
2023/03/14 05:16:04;;;;;;;1.30;0.40;;;12.80;72.90;;;;;;5009164;28;20048;-48
2023/03/14 05:18:48;;;;;;;2.42;0.40;;;12.80;73.50;;;;;;5029355;28;20033;-50
2023/03/14 05:21:35;;;;;;;1.65;0.43;;;12.80;72.90;;;;;;4995391;28;20051;-49
2023/03/14 05:24:34;;;;;;;0.77;0.60;;;12.80;73.50;;;;;;4992079;28;20536;-52
2023/03/14 05:27:06;;;;;;;3.85;0.73;;;12.80;72.80;;;;;;5030464;28;20046;-49
2023/03/14 05:29:41;;;;;;;0.25;0.20;;;12.90;73.10;;;;;;4994072;28;20058;-50
2023/03/14 05:32:27;;;;;;;0.70;0.47;;;12.80;72.90;;;;;;5010577;28;20157;-49
2023/03/14 05:35:15;;;;;;;0.52;0.20;;;12.90;72.80;;;;;;5029054;28;20141;-51
2023/03/14 05:37:52;;;;;;;1.55;0.30;;;12.90;72.80;;;;;;5011831;28;20415;-49
2023/03/14 05:40:46;;;;;;;1.48;0.30;;;12.80;72.80;;;;;;4992099;28;20034;-48
2023/03/14 05:43:31;;;;;;;2.08;0.30;;;12.90;72.90;;;;;;5028231;28;20048;-48
2023/03/14 05:46:34;;;;;;;1.58;0.50;;;12.90;72.90;;;;;;5009221;28;20053;-51
2023/03/14 05:49:15;;;;;;;0.95;0.45;;;12.90;73.10;;;;;;5007441;28;20048;-48
2023/03/14 05:52:14;;;;;;;0.85;0.47;;;12.90;73.00;;;;;;5000207;28;20513;-48
2023/03/14 05:54:50;;;;;;;1.58;0.20;;;12.90;73.00;;;;;;5021770;28;20041;-47
2023/03/14 05:57:17;;;;;;;1.10;0.47;;;12.90;73.20;;;;;;5030267;28;20085;-50
2023/03/14 06:00:07;;;;;;;0.22;0.22;;;12.90;73.10;;;;;;4996642;28;20494;-47
2023/03/14 06:02:53;;;;;;;1.48;0.20;;;12.90;73.30;;;;;;4998068;28;20037;-48
2023/03/14 06:05:31;;;;;;;0.77;0.30;;;12.90;73.20;;;;;;5010424;28;20538;-49
2023/03/14 06:08:06;;;;;;;2.15;0.40;;;12.90;73.20;;;;;;5015785;28;20041;-50
2023/03/14 06:10:36;;;;;;;2.17;0.30;;;12.90;73.20;;;;;;5028169;28;20045;-51
2023/03/14 06:13:03;;;;;;;1.05;0.22;;;12.90;73.30;;;;;;5010655;28;20079;-52
2023/03/14 06:15:35;;;;;;;0.90;0.30;;;12.90;73.40;;;;;;5002560;28;20073;-46
2023/03/14 06:18:05;;;;;;;0.30;0.20;;;12.90;73.70;;;;;;5029038;28;20034;-48
2023/03/14 06:20:41;;;;;;;0.43;0.30;;;12.90;73.70;;;;;;5009055;28;20128;-48
2023/03/14 06:23:11;;;;;;;0.88;0.25;;;12.90;73.70;;;;;;4992576;28;20073;-49
2023/03/14 06:25:38;;;;;;;1.38;0.10;;;12.90;73.50;;;;;;5026564;28;20045;-46
2023/03/14 06:28:07;;;;;;;0.52;0.20;;;12.90;73.50;;;;;;5011881;28;20117;-47
2023/03/14 06:30:35;;;;;;;0.38;0.38;;;12.90;73.80;;;;;;4993170;28;20034;-51
2023/03/14 06:33:08;;;;;;;0.68;0.50;;;12.90;73.50;;;;;;5012360;28;20132;-51
2023/03/14 06:35:41;;;;;;;0.77;0.32;;;12.90;73.60;;;;;;5015124;28;20072;-47
2023/03/14 06:38:13;;;;;;;0.50;0.22;;;12.90;73.60;;;;;;4995349;28;20046;-50
2023/03/14 06:40:45;;;;;;;0.28;0.28;;;12.90;73.80;;;;;;4988444;28;20046;-50
2023/03/14 06:43:19;;;;;;;0.57;0.57;;;12.90;73.70;;;;;;5012743;28;20573;-48
2023/03/14 06:45:52;;;;;;;0.63;0.38;;;12.90;73.70;;;;;;5022160;28;20649;-47
2023/03/14 06:48:20;;;;;;;0.50;0.50;;;12.90;73.60;;;;;;5013233;28;20081;-47
2023/03/14 06:50:54;;;;;;;0.82;0.75;;;12.90;73.60;;;;;;4983446;28;20133;-48
2023/03/14 06:53:26;;;;;;;0.70;0.50;;;12.90;73.70;;;;;;5008104;28;20532;-50
2023/03/14 06:55:53;;;;;;;0.90;0.70;;;13.00;73.90;;;;;;5010886;28;20042;-50
2023/03/14 06:58:28;;;;;;;1.00;0.80;;;13.00;74.00;;;;;;5009065;28;20075;-49
2023/03/14 07:00:57;;;;;;;0.73;0.70;;;13.00;74.40;;;;;;5012863;28;20033;-51
2023/03/14 07:03:33;;;;;;;1.00;0.93;;;13.00;74.40;;;;;;5030911;28;20056;-47
2023/03/14 07:06:00;;;;;;;0.98;0.98;;;13.10;74.40;;;;;;5010490;28;20067;-47
2023/03/14 07:08:34;;;;;;;1.85;0.90;;;13.10;74.40;;;;;;5017296;28;20042;-51
2023/03/14 07:11:06;;;;;;;0.77;0.77;;;13.10;74.20;;;;;;5013438;28;20053;-50
2023/03/14 07:13:33;;;;;;;;;;;13.10;74.40;;;;;;5004149;28;20038;-48
2023/03/14 07:16:20;;;;;;;1.00;0.77;;;13.20;75.00;;;;;;5003765;28;19921;-47
2023/03/14 07:18:51;;;;;;;1.40;0.90;;;13.20;74.40;;;;;;5029864;28;20037;-51
2023/03/14 07:21:21;;;;;;;1.42;0.80;;;13.20;74.00;;;;;;4998663;28;20042;-49
2023/03/14 07:23:53;;;;;;;0.77;0.77;;;13.20;74.10;;;;;;5022039;28;20457;-50
2023/03/14 07:26:23;;;;;;;0.90;0.90;;;13.20;74.00;;;;;;5013659;28;20046;-47
2023/03/14 07:28:55;;;;;;;0.90;0.65;;;13.20;74.20;;;;;;5011482;28;20056;-48
2023/03/14 07:31:22;;;;;;;0.60;0.60;;;13.20;74.20;;;;;;4997165;28;20462;-47
2023/03/14 07:33:49;;;;;;;1.20;1.00;;;13.30;74.10;;;;;;5005243;28;20049;-51
2023/03/14 07:36:23;;;;;;;1.13;0.80;;;13.30;74.30;;;;;;5013068;28;20071;-49
2023/03/14 07:38:52;;;;;;;0.68;0.50;;;13.30;74.30;;;;;;4995297;28;20043;-50
2023/03/14 07:41:32;;;;;;;1.13;0.60;;;13.30;74.10;;;;;;5001729;28;20647;-47
2023/03/14 07:44:17;;;;;;;1.13;1.00;;;13.40;74.20;;;;;;5032204;28;20056;-51
2023/03/14 07:46:46;;;;;;;0.60;0.60;;;13.40;74.00;;;;;;5021876;28;20042;-48
2023/03/14 07:49:22;;;;;;;0.50;0.43;;;13.50;73.90;;;;;;5024570;28;20115;-49
2023/03/14 07:51:51;;;;;;;1.23;0.97;;;13.50;73.80;;;;;;5016608;28;20056;-51
2023/03/14 07:54:18;;;;;;;1.65;1.00;;;13.60;73.80;;;;;;5033199;28;20064;-51
2023/03/14 07:56:46;;;;;;;0.93;0.93;;;13.60;73.90;;;;;;5031920;28;20050;-50
2023/03/14 07:59:13;;;;;;;0.90;0.90;;;13.60;73.70;;;;;;5031748;28;20052;-52
2023/03/14 08:01:44;;;;;;;0.75;0.75;;;13.70;73.50;;;;;;5010728;28;20629;-50
2023/03/14 08:04:13;;;;;;;2.15;0.93;;;13.80;73.30;;;;;;5004024;28;20136;-49
2023/03/14 08:06:46;;;;;;;0.77;0.63;;;13.80;73.30;;;;;;5016233;28;20113;-51
2023/03/14 08:09:12;;;;;;;1.63;0.73;;;13.80;73.00;;;;;;5032041;28;20045;-52
2023/03/14 08:11:41;;;;;;;1.27;1.17;;;13.90;73.10;;;;;;5030497;28;20049;-53
2023/03/14 08:14:11;;;;;;;0.77;0.77;;;13.90;73.10;;;;;;5028632;28;20573;-50
2023/03/14 08:16:41;;;;;;;1.73;1.17;;;13.90;73.10;;;;;;5015245;28;20522;-52
2023/03/14 08:19:08;;;;;;;1.75;1.30;;;13.90;73.10;;;;;;5002481;28;20433;-53
2023/03/14 08:21:39;;;;;;;1.25;1.05;;;13.90;73.10;;;;;;5009257;28;20061;-52
2023/03/14 08:24:16;;;;;;;1.85;1.00;;;13.90;73.10;;;;;;5012232;28;20041;-50
2023/03/14 08:26:43;;;;;;;1.00;1.00;;;13.90;73.40;;;;;;5008784;28;20117;-48
2023/03/14 08:29:13;;;;;;;1.00;0.90;;;13.90;73.60;;;;;;5011910;28;20506;-50
2023/03/14 08:31:40;;;;;;;1.30;1.20;;;13.80;73.70;;;;;;5008537;28;20054;-47
2023/03/14 08:34:07;;;;;;;1.40;1.13;;;13.80;73.90;;;;;;5028216;28;20048;-48
2023/03/14 08:36:37;;;;;;;2.08;1.55;;;13.80;74.10;;;;;;5031209;28;20056;-50
2023/03/14 08:39:07;;;;;;;1.55;1.10;;;13.80;74.60;;;;;;5023588;28;20121;-49
2023/03/14 08:41:39;;;;;;;4.85;1.50;;;13.80;74.80;;;;;;5010024;28;20076;-55
2023/03/14 08:44:11;;;;;;;0.90;0.90;;;13.80;76.70;;;;;;5009711;28;20405;-50
2023/03/14 08:46:41;;;;;;;0.50;0.38;;;13.70;75.80;;;;;;5011391;28;20087;-50
2023/03/14 08:49:08;;;;;;;0.50;0.30;;;13.60;73.90;;;;;;5009516;28;20046;-47
2023/03/14 08:51:37;;;;;;;0.40;0.40;;;13.40;73.70;;;;;;5006918;28;20088;-54
2023/03/14 08:54:05;;;;;;;1.17;0.40;;;13.30;73.80;;;;;;4988086;28;20057;-52
2023/03/14 08:56:41;;;;;;;0.63;0.30;;;13.00;73.80;;;;;;5010297;28;20057;-47
2023/03/14 08:59:10;;;;;;;0.50;0.50;;;12.80;74.20;;;;;;5012784;28;20042;-50
2023/03/14 09:01:39;;;;;;;0.93;0.50;;;12.70;74.70;;;;;;5010135;28;20327;-51
2023/03/14 09:04:23;;;;;;;0.57;0.50;;;12.50;75.30;;;;;;5011347;28;20096;-47
2023/03/14 09:06:51;;;;;;;1.40;0.65;;;12.30;75.50;;;;;;5011719;28;20042;-50
2023/03/14 09:09:17;;;;;;;0.80;0.80;;;12.20;76.00;;;;;;5012923;28;20467;-48
2023/03/14 09:11:53;;;;;;;1.30;1.10;;;12.00;76.60;;;;;;5020432;28;20140;-51
2023/03/14 09:14:25;;;;;;;1.70;1.33;;;11.90;77.10;;;;;;5009110;28;20046;-49
2023/03/14 09:16:55;;;;;;;6.75;2.33;;;11.80;77.70;;;;;;4984743;28;20484;-48
2023/03/14 09:19:28;;;;;;;1.55;1.45;;;11.80;77.90;;;;;;5030632;28;20477;-49
2023/03/14 09:22:00;;;;;;;1.50;1.33;;;11.70;78.40;;;;;;5013253;28;20048;-50
2023/03/14 09:24:26;;;;;;;1.80;1.70;;;11.70;78.30;;;;;;5026155;28;20044;-52
2023/03/14 09:26:57;;;;;;;2.53;1.80;;;11.60;78.80;;;;;;5030026;28;20049;-52
2023/03/14 09:29:24;;;;;;;1.90;1.45;;;11.60;79.10;;;;;;5013156;28;20045;-49
2023/03/14 09:31:53;;;;;;;1.50;1.42;;;11.50;79.20;;;;;;5023017;28;20046;-49
2023/03/14 09:34:20;;;;;;;1.80;1.70;;;11.50;79.20;;;;;;5013521;28;20049;-49
2023/03/14 09:36:53;;;;;;;2.10;1.90;;;11.50;79.40;;;;;;5029339;28;20056;-49
2023/03/14 09:39:21;;;;;;;3.53;1.92;;;11.40;79.40;;;;;;5009562;28;20550;-55
2023/03/14 09:41:54;;;;;;;2.90;2.45;;;11.40;79.90;;;;;;5027649;28;20049;-52
2023/03/14 09:44:35;;;;;;;2.50;2.30;;;11.40;79.50;;;;;;5016186;28;20573;-52
2023/03/14 09:47:10;;;;;;;2.67;2.47;;;11.30;79.60;;;;;;5011950;28;20495;-51
2023/03/14 09:49:40;;;;;;;3.90;3.00;;;11.30;79.90;;;;;;5012471;28;20120;-56
2023/03/14 09:52:12;;;;;;;3.08;2.20;;;11.30;80.20;;;;;;5015081;28;20107;-54
2023/03/14 09:54:45;;;;;;;2.40;2.20;;;11.30;80.30;;;;;;5010096;28;20042;-53
2023/03/14 09:57:18;;;;;;;3.08;2.25;;;11.30;80.60;;;;;;5010180;28;20573;-52
2023/03/14 09:59:48;;;;;;;2.90;1.58;;;11.30;80.60;;;;;;5007003;28;20046;-55
2023/03/14 10:02:28;;;;;;;1.88;1.75;;;11.30;80.70;;;;;;5019907;28;20411;-51
2023/03/14 10:04:56;;;;;;;2.33;1.42;;;11.30;81.00;;;;;;4993945;28;20049;-52
2023/03/14 10:07:31;;;;;;;3.20;1.50;;;11.30;80.80;;;;;;5011583;28;20045;-53
2023/03/14 10:10:00;;;;;;;1.33;1.13;;;11.30;81.00;;;;;;5013314;28;20061;-49
2023/03/14 10:12:38;;;;;;;1.58;1.13;;;11.40;80.90;;;;;;5029561;28;20045;-52
2023/03/14 10:15:17;;;;;;;1.30;1.20;;;11.40;81.20;;;;;;5001910;28;20053;-48
2023/03/14 10:17:51;;;;;;;1.50;1.10;;;11.40;80.80;;;;;;5014381;28;20042;-49
2023/03/14 10:20:36;;;;;;;1.52;0.90;;;11.40;80.50;;;;;;5029960;28;20042;-51
2023/03/14 10:23:12;;;;;;;1.23;0.93;;;11.40;80.60;;;;;;5017143;28;20518;-51
2023/03/14 10:25:46;;;;;;;1.48;0.85;;;11.40;80.60;;;;;;5028629;28;20091;-49
2023/03/14 10:28:26;;;;;;;1.38;1.27;;;11.40;80.20;;;;;;5022019;28;20049;-52
2023/03/14 10:30:59;;;;;;;1.42;1.20;;;11.40;81.40;;;;;;5016320;28;20049;-48
2023/03/14 10:33:35;;;;;;;1.92;1.13;;;11.40;81.60;;;;;;5029723;28;20387;-54
2023/03/14 10:36:25;;;;;;;1.42;1.10;;;11.40;81.80;;;;;;5029095;28;20414;-49
2023/03/14 10:39:22;;;;;;;2.20;1.67;;;11.50;82.90;;;;;;5013557;28;20446;-49
2023/03/14 10:41:52;;;;;;;1.55;1.38;;;11.50;81.60;;;;;;5019253;28;20516;-52
2023/03/14 10:44:25;;;;;;;3.97;1.48;;;11.60;81.00;;;;;;5029508;28;20037;-52
2023/03/14 10:47:04;;;;;;;1.90;0.68;;;11.60;80.60;;;;;;5028663;28;20476;-51
2023/03/14 10:49:38;;;;;;;1.73;0.50;;;11.60;78.70;;;;;;5017940;28;20501;-51
2023/03/14 10:52:14;;;;;;;0.25;0.20;;;11.50;77.50;;;;;;5008889;28;20038;-49
2023/03/14 10:54:41;;;;;;;0.68;0.40;;;11.30;77.50;;;;;;5020951;28;20048;-53
2023/03/14 10:57:15;;;;;;;0.75;0.30;;;11.20;77.30;;;;;;5010231;28;20056;-48
2023/03/14 10:59:45;;;;;;;0.30;0.30;;;11.00;77.60;;;;;;5012510;28;20038;-48
2023/03/14 11:02:37;;;;;;;0.65;0.40;;;10.90;77.60;;;;;;5024044;28;20026;-49
2023/03/14 11:05:38;;;;;;;0.85;0.43;;;10.80;78.60;;;;;;5028757;28;20045;-51
2023/03/14 11:08:17;;;;;;;0.45;0.45;;;10.70;79.30;;;;;;5010611;28;20045;-49
2023/03/14 11:10:54;;;;;;;1.35;0.57;;;10.60;79.50;;;;;;5022663;28;20038;-56
2023/03/14 11:13:46;;;;;;;0.63;0.60;;;10.60;80.00;;;;;;5029072;28;20045;-50
2023/03/14 11:16:21;;;;;;;1.45;0.50;;;10.60;80.70;;;;;;5015639;28;20510;-52
2023/03/14 11:19:17;;;;;;;1.95;0.80;;;10.50;80.40;;;;;;5014881;28;20042;-52
2023/03/14 11:21:50;;;;;;;1.75;1.10;;;10.50;80.10;;;;;;4963379;28;20133;-53
2023/03/14 11:24:33;;;;;;;0.88;0.75;;;10.50;80.30;;;;;;5021005;28;20092;-52
2023/03/14 11:27:12;;;;;;;;;;;10.50;80.80;;;;;;5008432;28;20392;-51
2023/03/14 11:29:53;;;;;;;0.65;0.65;;;10.60;81.70;;;;;;5013671;28;19936;-52
2023/03/14 11:32:52;;;;;;;3.42;1.00;;;10.60;80.90;;;;;;5006816;28;20041;-50
2023/03/14 11:35:30;;;;;;;1.77;0.80;;;10.60;80.90;;;;;;5007785;28;20043;-53
2023/03/14 11:38:20;;;;;;;2.38;0.75;;;10.60;79.50;;;;;;5018596;28;20048;-52
2023/03/14 11:40:52;;;;;;;2.88;1.80;;;10.60;79.90;;;;;;5020148;28;20053;-50
2023/03/14 11:43:32;;;;;;;4.03;1.40;;;10.50;79.20;;;;;;5024766;28;20037;-49
2023/03/14 11:46:38;;;;;;;1.33;0.77;;;10.50;78.80;;;;;;5012377;28;20049;-49
2023/03/14 11:49:24;;;;;;;1.65;0.95;;;10.40;79.30;;;;;;5031254;28;20095;-49
2023/03/14 11:52:03;;;;;;;4.82;0.82;;;10.40;80.10;;;;;;5014530;28;20050;-50
2023/03/14 11:55:07;;;;;;;2.90;1.10;;;10.50;79.90;;;;;;5031287;28;20100;-51
2023/03/14 11:57:34;;;;;;;5.13;1.33;;;10.50;80.50;;;;;;5022372;28;20046;-50
2023/03/14 12:00:17;;;;;;;7.60;2.10;;;10.50;79.50;;;;;;5015413;28;20550;-52
2023/03/14 12:03:04;;;;;;;4.90;1.42;;;10.50;78.90;;;;;;5021255;28;20060;-52
2023/03/14 12:06:16;;;;;;;4.28;1.70;;;10.50;79.90;;;;;;5012422;28;20110;-51
2023/03/14 12:09:00;;;;;;;7.63;1.83;;;10.60;80.80;;;;;;5006706;28;20054;-57
2023/03/14 12:11:56;;;;;;;5.93;1.90;;;10.70;79.80;;;;;;5010116;28;20050;-50
2023/03/14 12:14:28;;;;;;;5.72;1.52;;;10.70;79.10;;;;;;5011745;28;20038;-53
2023/03/14 12:17:05;;;;;;;8.30;1.95;;;10.70;79.10;;;;;;5018342;28;20038;-51
2023/03/14 12:19:39;;;;;;;4.68;1.45;;;10.80;79.70;;;;;;4999086;28;20042;-50
2023/03/14 12:22:29;;;;;;;5.90;2.28;;;10.80;78.80;;;;;;5007097;28;20434;-48
2023/03/14 12:25:05;;;;;;;5.50;1.88;;;10.80;79.00;;;;;;4979465;28;20038;-49
2023/03/14 12:28:19;;;;;;;8.23;2.28;;;10.90;80.10;;;;;;5003348;28;20034;-50
2023/03/14 12:30:47;;;;;;;8.48;2.42;;;11.10;82.20;;;;;;4992077;28;20072;-49
2023/03/14 12:33:17;;;;;;;11.23;2.30;;;11.20;81.40;;;;;;5010670;28;20060;-50
2023/03/14 12:36:00;;;;;;;9.43;2.10;;;11.40;81.10;;;;;;5006518;28;20046;-49
2023/03/14 12:38:45;;;;;;;8.45;2.33;;;11.50;80.00;;;;;;5009931;28;20413;-52
2023/03/14 12:41:14;;;;;;;6.68;2.17;;;11.60;78.70;;;;;;5011947;28;20033;-48
2023/03/14 12:43:46;;;;;;;13.55;2.45;;;11.60;76.60;;;;;;5008304;28;20116;-47
2023/03/14 12:46:16;;;;;;;4.35;1.92;;;11.60;74.70;;;;;;5009854;28;20108;-48
2023/03/14 12:48:54;;;;;;;6.32;1.60;;;11.40;74.10;;;;;;5010663;28;20049;-49
2023/03/14 12:51:39;;;;;;;5.93;1.25;;;11.20;74.20;;;;;;5005889;28;20042;-49
2023/03/14 12:54:14;;;;;;;3.65;1.33;;;11.00;74.90;;;;;;5010810;28;20051;-51
2023/03/14 12:56:58;;;;;;;4.60;1.45;;;10.80;75.80;;;;;;5005122;28;20052;-48
2023/03/14 12:59:32;;;;;;;;;;;10.60;75.80;;;;;;5004960;28;20140;-50
2023/03/14 13:02:16;;;;;;;14.48;1.92;;;10.60;77.70;;;;;;5009212;28;20381;-50
2023/03/14 13:05:05;;;;;;;9.73;1.95;;;10.50;77.00;;;;;;5009429;28;20565;-54
2023/03/14 13:07:59;;;;;;;8.75;2.17;;;10.40;77.10;;;;;;4999123;28;20159;-52
2023/03/14 13:10:38;;;;;;;10.57;1.95;;;10.30;77.90;;;;;;4978465;28;20410;-50
2023/03/14 13:13:26;;;;;;;15.07;2.80;;;10.30;77.80;;;;;;5007688;28;20046;-55
2023/03/14 13:15:59;;;;;;;13.93;3.13;;;10.30;78.30;;;;;;5004274;28;20042;-55
2023/03/14 13:18:37;;;;;;;9.90;3.65;;;10.30;79.00;;;;;;5006131;28;20502;-50
2023/03/14 13:21:12;;;;;;;11.60;3.15;;;10.40;80.00;;;;;;5005049;28;20041;-53
2023/03/14 13:23:39;;;;;;;11.77;3.17;;;10.40;79.20;;;;;;5007224;28;20035;-53
2023/03/14 13:26:13;;;;;;;9.32;2.10;;;10.40;78.70;;;;;;5006785;28;20038;-49
2023/03/14 13:28:41;;;;;;;13.95;3.53;;;10.50;77.70;;;;;;5003539;28;20384;-55